Elin Poseidon — SVAZ2 — position and weather

sailwx.info

Track history (hours):
 
Tides and Currents Weather Stations Pressure Air Temp Water Temp Dewpoint Dewpoint Depression Visibility Wind Speed Wind Dir Waves Ship Positions

Elin Poseidon

Last reported at 2017-Oct-17 20:29 UTC. Time now 2017-Oct-22 21:14 UTC.
Position N 37°39' E 023°43'.

Length 92 m; draft 4.9 m.

Type: Tanker. MMSI: 241006000.

Date/timePositionNaut miles runAvg speedWind from/ knotsBaromVisibWave heightAir tempDewpointWater temp
2017-Oct-17 20:29N 37°39' E 023°43'612.0
2017-Oct-17 20:00N 37°44' E 023°39'611.9
2017-Oct-17 19:30N 37°49' E 023°35'611.9
2017-Oct-17 19:00N 37°51' E 023°28'611.1
2017-Oct-17 18:30N 37°54' E 023°22'5 9.9
2017-Oct-17 18:00N 37°58' E 023°26'3 7.0
2017-Oct-17 17:30N 38°01' E 023°29'2 3.5
2017-Oct-17 17:00N 38°02' E 023°31'0 0.2
2017-Oct-17 16:25N 38°02' E 023°31'0 0.0
2017-Oct-17 14:37N 38°02' E 023°31'0 0.0
2017-Oct-17 14:25N 38°02' E 023°31'0 0.0
2017-Oct-17 13:49N 38°02' E 023°31'0 0.0
2017-Oct-17 13:19N 38°02' E 023°31'0 0.0
2017-Oct-17 12:49N 38°02' E 023°31'0 0.0
2017-Oct-17 12:25N 38°02' E 023°31'0 0.0
2017-Oct-17 09:43N 38°02' E 023°31'0 0.0
2017-Oct-17 09:25N 38°02' E 023°31'0 0.0
2017-Oct-17 08:55N 38°02' E 023°31'0 0.0
2017-Oct-17 08:07N 38°02' E 023°31'0 0.0
2017-Oct-17 07:55N 38°02' E 023°31'0 0.0
2017-Oct-17 06:55N 38°02' E 023°31'0 0.0
2017-Oct-17 06:19N 38°02' E 023°31'0 0.0
2017-Oct-17 05:49N 38°02' E 023°31'0 0.0
2017-Oct-17 05:25N 38°02' E 023°31'0 0.0
2017-Oct-17 04:49N 38°02' E 023°31'0 0.0
2017-Oct-17 04:25N 38°02' E 023°31'0 0.0
2017-Oct-17 03:55N 38°02' E 023°31'0 0.0
2017-Oct-17 03:13N 38°02' E 023°31'0 0.0
2017-Oct-17 02:55N 38°02' E 023°31'0 0.0
2017-Oct-17 02:25N 38°02' E 023°31'0 0.0
2017-Oct-17 01:55N 38°02' E 023°31'0 0.0
2017-Oct-17 01:25N 38°02' E 023°31'0 0.0
2017-Oct-17 00:55N 38°02' E 023°31'0 0.0
2017-Oct-17 00:25N 38°02' E 023°31'0 0.0
2017-Oct-16 23:49N 38°02' E 023°31'0 0.0
2017-Oct-16 23:25N 38°02' E 023°31'0 0.0
2017-Oct-16 22:55N 38°02' E 023°31'0 0.0
2017-Oct-16 22:25N 38°02' E 023°31'0 0.0
2017-Oct-16 21:55N 38°02' E 023°31'0 0.0
2017-Oct-16 21:25N 38°02' E 023°31'0 0.0
2017-Oct-16 20:55N 38°02' E 023°31'0 0.0
2017-Oct-16 20:28N 38°02' E 023°31'0 0.0
2017-Oct-16 19:58N 38°02' E 023°31'0 0.0
2017-Oct-16 19:25N 38°02' E 023°31'0 0.1
2017-Oct-16 19:00N 38°02' E 023°31'0 1.0
2017-Oct-16 18:30N 38°01' E 023°31'1 1.1
2017-Oct-16 18:00N 38°02' E 023°31'0 0.0
2017-Oct-16 09:45N 38°02' E 023°31'0 0.0
2017-Oct-16 09:27N 38°02' E 023°31'0 0.0
2017-Oct-16 08:57N 38°02' E 023°31'0 0.0
2017-Oct-16 07:03N 38°02' E 023°31'0 0.0
2017-Oct-16 06:45N 38°02' E 023°31'0 0.0
2017-Oct-16 06:27N 38°02' E 023°31'0 0.0
2017-Oct-16 05:57N 38°02' E 023°31'0 0.0
2017-Oct-16 05:27N 38°02' E 023°31'0 0.0
2017-Oct-16 04:57N 38°02' E 023°31'0 0.0
2017-Oct-16 04:27N 38°02' E 023°31'0 0.0
2017-Oct-16 03:57N 38°02' E 023°31'0 0.0
2017-Oct-16 03:27N 38°02' E 023°31'0 0.0
2017-Oct-16 02:45N 38°02' E 023°31'0 0.1
2017-Oct-16 02:27N 38°02' E 023°31'0 0.0
2017-Oct-16 01:57N 38°02' E 023°31'0 0.0
2017-Oct-16 01:27N 38°02' E 023°31'0 0.0
2017-Oct-16 00:51N 38°02' E 023°31'0 0.0
2017-Oct-16 00:27N 38°02' E 023°31'0 0.0
2017-Oct-15 23:57N 38°02' E 023°31'0 0.0
2017-Oct-15 23:21N 38°02' E 023°31'0 0.0
2017-Oct-15 22:57N 38°02' E 023°31'0 0.1
2017-Oct-15 22:30N 38°02' E 023°31'0 0.8
2017-Oct-15 22:00N 38°01' E 023°32'3 6.3
2017-Oct-15 21:30N 38°02' E 023°36'0 0.0
2017-Oct-15 10:27N 38°02' E 023°36'0 0.9
2017-Oct-15 09:58N 38°01' E 023°35'2 5.4
2017-Oct-15 09:30N 38°01' E 023°32'2 2.4
2017-Oct-15 08:51N 38°02' E 023°31'0 0.0
2017-Oct-15 08:09N 38°02' E 023°31'0 0.0
2017-Oct-15 07:51N 38°02' E 023°31'0 0.0
2017-Oct-15 06:45N 38°02' E 023°31'0 0.0
2017-Oct-15 06:27N 38°02' E 023°31'0 0.0
2017-Oct-14 17:25N 38°02' E 023°30'2 3.5
2017-Oct-14 16:59N 38°02' E 023°32'0 0.1
2017-Oct-14 16:29N 38°02' E 023°32'0 0.0
2017-Oct-14 15:59N 38°02' E 023°32'0 0.0
2017-Oct-14 15:26N 38°02' E 023°32'0 0.0
2017-Oct-14 14:59N 38°02' E 023°32'0 0.0
2017-Oct-14 14:29N 38°02' E 023°32'0 0.0
2017-Oct-14 13:56N 38°02' E 023°32'0 0.0
2017-Oct-14 13:29N 38°02' E 023°32'0 0.0
2017-Oct-14 12:58N 38°02' E 023°32'0 0.0
2017-Oct-14 12:28N 38°02' E 023°32'0 0.0
2017-Oct-14 11:58N 38°02' E 023°32'0 0.0
2017-Oct-14 11:28N 38°02' E 023°32'0 0.0
2017-Oct-14 10:58N 38°02' E 023°32'0 0.0
2017-Oct-14 10:28N 38°02' E 023°32'0 0.0
2017-Oct-14 09:55N 38°02' E 023°32'0 0.0
2017-Oct-14 09:22N 38°02' E 023°32'0 0.1
2017-Oct-14 08:55N 38°02' E 023°32'0 0.0
2017-Oct-14 08:19N 38°02' E 023°32'0 0.0
2017-Oct-14 07:49N 38°02' E 023°32'0 0.0
2017-Oct-14 07:25N 38°02' E 023°32'0 0.0
2017-Oct-14 06:58N 38°02' E 023°32'0 0.0
2017-Oct-14 06:25N 38°02' E 023°32'0 0.0
2017-Oct-14 05:55N 38°02' E 023°32'0 0.0
2017-Oct-14 05:19N 38°02' E 023°32'0 0.0
2017-Oct-14 04:58N 38°02' E 023°32'0 0.0
2017-Oct-14 04:25N 38°02' E 023°32'0 0.0
2017-Oct-14 03:58N 38°02' E 023°32'0 0.0
2017-Oct-14 03:22N 38°02' E 023°32'0 0.0
2017-Oct-14 02:55N 38°02' E 023°32'0 0.1
2017-Oct-14 02:28N 38°02' E 023°32'0 0.0
2017-Oct-14 01:58N 38°02' E 023°32'0 0.0
2017-Oct-14 01:25N 38°02' E 023°32'0 0.0
2017-Oct-14 00:55N 38°02' E 023°32'0 0.0
2017-Oct-14 00:25N 38°02' E 023°32'0 0.0
2017-Oct-13 23:55N 38°02' E 023°32'0 0.0
2017-Oct-13 23:25N 38°02' E 023°32'0 0.0
2017-Oct-13 22:55N 38°02' E 023°32'0 0.0
2017-Oct-13 22:25N 38°02' E 023°32'0 0.0
2017-Oct-13 21:55N 38°02' E 023°32'0 0.1
2017-Oct-13 21:28N 38°02' E 023°32'0 0.1
2017-Oct-13 20:58N 38°02' E 023°32'0 0.1
2017-Oct-13 20:28N 38°02' E 023°32'0 0.1
2017-Oct-13 19:58N 38°02' E 023°32'0 0.0
2017-Oct-13 19:28N 38°02' E 023°32'0 0.0
2017-Oct-13 18:58N 38°02' E 023°32'0 0.0
2017-Oct-13 18:28N 38°02' E 023°32'0 0.1
2017-Oct-13 17:58N 38°02' E 023°32'0 0.1
2017-Oct-13 17:25N 38°02' E 023°32'0 0.0
2017-Oct-13 16:58N 38°02' E 023°32'0 0.0
2017-Oct-13 16:28N 38°02' E 023°32'0 0.0
2017-Oct-13 15:55N 38°02' E 023°32'0 0.0
2017-Oct-13 15:22N 38°02' E 023°32'0 0.0
2017-Oct-13 14:52N 38°02' E 023°32'0 0.0
2017-Oct-13 14:28N 38°02' E 023°32'0 0.0
2017-Oct-13 13:55N 38°02' E 023°32'0 0.1
2017-Oct-13 13:28N 38°02' E 023°32'0 0.0
2017-Oct-13 12:58N 38°02' E 023°32'0 0.0
2017-Oct-13 12:28N 38°02' E 023°32'0 0.1
2017-Oct-13 11:49N 38°02' E 023°32'0 0.1
2017-Oct-13 11:28N 38°02' E 023°32'0 0.0
2017-Oct-13 10:55N 38°02' E 023°32'0 0.0
2017-Oct-13 10:25N 38°02' E 023°32'0 0.1
2017-Oct-13 09:58N 38°02' E 023°32'0 0.0
2017-Oct-13 09:19N 38°02' E 023°32'0 0.0
2017-Oct-13 08:55N 38°02' E 023°32'0 0.0
2017-Oct-13 08:25N 38°02' E 023°32'0 0.0
2017-Oct-13 07:55N 38°02' E 023°32'0 0.0
2017-Oct-13 07:28N 38°02' E 023°32'0 0.0
2017-Oct-13 06:58N 38°02' E 023°32'0 0.0
2017-Oct-13 06:25N 38°02' E 023°32'0 0.0
2017-Oct-13 05:52N 38°02' E 023°32'0 0.0
2017-Oct-13 05:19N 38°02' E 023°32'0 0.0
2017-Oct-13 04:49N 38°02' E 023°32'0 0.0
2017-Oct-13 04:28N 38°02' E 023°32'0 1.1
2017-Oct-13 04:00N 38°01' E 023°33'2 0.2
2017-Oct-12 17:58N 38°02' E 023°36'0 0.9
2017-Oct-12 17:29N 38°02' E 023°35'1 1.8
2017-Oct-12 16:56N 38°01' E 023°35'0 0.0
2017-Oct-12 16:27N 38°01' E 023°35'0 0.1
2017-Oct-12 12:54N 38°01' E 023°34'2 5.0
2017-Oct-12 12:31N 38°01' E 023°32'1 2.1
2017-Oct-12 11:54N 38°02' E 023°31'0 0.0
2017-Oct-12 11:30N 38°02' E 023°31'0 0.0
2017-Oct-12 10:51N 38°02' E 023°31'0 0.0
2017-Oct-12 10:30N 38°02' E 023°31'0 0.0
2017-Oct-12 10:00N 38°02' E 023°31'0 0.0
2017-Oct-12 09:30N 38°02' E 023°31'0 0.0
2017-Oct-12 08:54N 38°02' E 023°31'0 0.0
2017-Oct-12 08:27N 38°02' E 023°31'0 0.0
2017-Oct-12 08:00N 38°02' E 023°31'0 0.0
2017-Oct-12 07:30N 38°02' E 023°31'0 0.0
2017-Oct-12 07:00N 38°02' E 023°31'0 0.0
2017-Oct-12 06:30N 38°02' E 023°31'0 0.0
2017-Oct-12 06:00N 38°02' E 023°31'0 0.0
2017-Oct-11 23:41N 38°02' E 023°31'0 0.0
2017-Oct-11 23:23N 38°02' E 023°31'0 0.0
2017-Oct-11 22:59N 38°02' E 023°31'0 0.0
2017-Oct-11 22:30N 38°02' E 023°31'1 1.9
2017-Oct-11 22:00N 38°01' E 023°31'0 0.7
2017-Oct-11 21:30N 38°01' E 023°32'0 0.0
2017-Oct-11 20:57N 38°01' E 023°32'0 0.0
2017-Oct-11 20:30N 38°01' E 023°32'0 0.0
2017-Oct-11 20:00N 38°01' E 023°32'0 0.0
2017-Oct-11 19:30N 38°01' E 023°32'0 0.0
2017-Oct-11 19:00N 38°01' E 023°32'0 0.0
2017-Oct-11 18:30N 38°01' E 023°32'0 0.0
2017-Oct-11 18:00N 38°01' E 023°32'0 0.0
2017-Oct-11 17:30N 38°01' E 023°32'0 0.1
2017-Oct-11 17:00N 38°01' E 023°32'142 5.8
2017-Oct-10 16:17N 40°07' E 024°57'312.1
2017-Oct-10 16:00N 40°11' E 024°58'712.3
2017-Oct-10 15:26N 40°18' E 024°59'612.5
2017-Oct-10 14:58N 40°23' E 024°60'1212.2
2017-Oct-10 13:59N 40°35' E 025°03'612.4
2017-Oct-10 13:30N 40°41' E 025°03'612.3
2017-Oct-10 13:00N 40°47' E 025°04'611.8
2017-Oct-10 12:30N 40°53' E 025°05'510.3
2017-Oct-10 11:59N 40°58' E 025°06'2 0.3
2017-Oct-10 05:24N 41°00' E 025°08'2 4.4
2017-Oct-10 05:00N 40°59' E 025°07'4 7.4
2017-Oct-10 04:30N 40°56' E 025°04'511.0
2017-Oct-10 04:00N 40°51' E 025°01'611.1
2017-Oct-10 03:30N 40°46' E 024°57'611.7
2017-Oct-10 03:00N 40°41' E 024°53'612.3
2017-Oct-10 02:29N 40°35' E 024°49'612.1
2017-Oct-10 02:00N 40°30' E 024°46'612.3
2017-Oct-10 01:30N 40°24' E 024°42'612.2
2017-Oct-10 01:00N 40°19' E 024°38'712.1
2017-Oct-10 00:24N 40°13' E 024°34'511.7
2017-Oct-09 23:59N 40°08' E 024°31'1111.7
2017-Oct-09 23:05N 40°01' E 024°22'212.4
2017-Oct-09 22:57N 39°59' E 024°20'612.4
2017-Oct-09 22:30N 39°55' E 024°15'612.2
2017-Oct-09 21:59N 39°50' E 024°10'612.1
2017-Oct-09 21:30N 39°46' E 024°04'129 3.9
2017-Oct-08 12:28N 37°38' E 023°50'611.8
2017-Oct-08 11:59N 37°40' E 023°43'612.0
2017-Oct-08 11:30N 37°45' E 023°40'611.7
2017-Oct-08 11:00N 37°49' E 023°35'611.9
2017-Oct-08 10:30N 37°50' E 023°28'612.2
2017-Oct-08 10:00N 37°52' E 023°20'611.7
2017-Oct-08 09:30N 37°53' E 023°13'510.4
2017-Oct-08 09:00N 37°54' E 023°07'1 2.4
2017-Oct-08 08:29N 37°55' E 023°05'0 0.0
2017-Oct-08 07:59N 37°55' E 023°05'0 0.0
2017-Oct-08 07:29N 37°55' E 023°05'0 0.0
2017-Oct-08 06:03N 37°55' E 023°05'0 0.1
2017-Oct-08 06:00N 37°55' E 023°05'0 0.0
2017-Oct-08 05:30N 37°55' E 023°05'0 0.0
2017-Oct-08 05:00N 37°55' E 023°05'0 0.0
2017-Oct-08 04:30N 37°55' E 023°05'0 0.0
2017-Oct-08 04:00N 37°55' E 023°05'0 0.0
2017-Oct-08 03:30N 37°55' E 023°05'0 0.0
2017-Oct-08 03:00N 37°55' E 023°05'0 0.0
2017-Oct-08 02:30N 37°55' E 023°05'0 0.0
2017-Oct-08 02:00N 37°55' E 023°05'0 0.0
2017-Oct-08 01:30N 37°55' E 023°05'0 0.0
2017-Oct-08 01:00N 37°55' E 023°05'0 0.0
2017-Oct-08 00:30N 37°55' E 023°05'0 0.0
2017-Oct-08 00:00N 37°55' E 023°05'0 0.0
2017-Oct-07 23:30N 37°55' E 023°05'0 0.0
2017-Oct-07 23:00N 37°55' E 023°05'0 0.0
2017-Oct-07 22:30N 37°55' E 023°05'0 0.0
2017-Oct-07 22:00N 37°55' E 023°05'0 0.0
2017-Oct-07 21:30N 37°55' E 023°05'0 0.0
2017-Oct-07 21:00N 37°55' E 023°05'0 0.0
2017-Oct-07 20:30N 37°55' E 023°05'  
Track history (hours):
 
Tides and Currents Weather Stations Pressure Air Temp Water Temp Dewpoint Dewpoint Depression Visibility Wind Speed Wind Dir Waves Ship Positions

Elin Poseidon

Last reported at 2017-Oct-17 20:29 UTC. Time now 2017-Oct-22 21:14 UTC.
Position N 37°39' E 023°43'.

Length 92 m; draft 4.9 m.

Type: Tanker. MMSI: 241006000.

Date/timePositionNaut miles runAvg speedWind from/ knotsBaromVisibWave heightAir tempDewpointWater temp
2017-Oct-17 20:29N 37°39' E 023°43'612.0
2017-Oct-17 20:00N 37°44' E 023°39'611.9
2017-Oct-17 19:30N 37°49' E 023°35'611.9
2017-Oct-17 19:00N 37°51' E 023°28'611.1
2017-Oct-17 18:30N 37°54' E 023°22'5 9.9
2017-Oct-17 18:00N 37°58' E 023°26'3 7.0
2017-Oct-17 17:30N 38°01' E 023°29'2 3.5
2017-Oct-17 17:00N 38°02' E 023°31'0 0.2
2017-Oct-17 16:25N 38°02' E 023°31'0 0.0
2017-Oct-17 14:37N 38°02' E 023°31'0 0.0
2017-Oct-17 14:25N 38°02' E 023°31'0 0.0
2017-Oct-17 13:49N 38°02' E 023°31'0 0.0
2017-Oct-17 13:19N 38°02' E 023°31'0 0.0
2017-Oct-17 12:49N 38°02' E 023°31'0 0.0
2017-Oct-17 12:25N 38°02' E 023°31'0 0.0
2017-Oct-17 09:43N 38°02' E 023°31'0 0.0
2017-Oct-17 09:25N 38°02' E 023°31'0 0.0
2017-Oct-17 08:55N 38°02' E 023°31'0 0.0
2017-Oct-17 08:07N 38°02' E 023°31'0 0.0
2017-Oct-17 07:55N 38°02' E 023°31'0 0.0
2017-Oct-17 06:55N 38°02' E 023°31'0 0.0
2017-Oct-17 06:19N 38°02' E 023°31'0 0.0
2017-Oct-17 05:49N 38°02' E 023°31'0 0.0
2017-Oct-17 05:25N 38°02' E 023°31'0 0.0
2017-Oct-17 04:49N 38°02' E 023°31'0 0.0
2017-Oct-17 04:25N 38°02' E 023°31'0 0.0
2017-Oct-17 03:55N 38°02' E 023°31'0 0.0
2017-Oct-17 03:13N 38°02' E 023°31'0 0.0
2017-Oct-17 02:55N 38°02' E 023°31'0 0.0
2017-Oct-17 02:25N 38°02' E 023°31'0 0.0
2017-Oct-17 01:55N 38°02' E 023°31'0 0.0
2017-Oct-17 01:25N 38°02' E 023°31'0 0.0
2017-Oct-17 00:55N 38°02' E 023°31'0 0.0
2017-Oct-17 00:25N 38°02' E 023°31'0 0.0
2017-Oct-16 23:49N 38°02' E 023°31'0 0.0
2017-Oct-16 23:25N 38°02' E 023°31'0 0.0
2017-Oct-16 22:55N 38°02' E 023°31'0 0.0
2017-Oct-16 22:25N 38°02' E 023°31'0 0.0
2017-Oct-16 21:55N 38°02' E 023°31'0 0.0
2017-Oct-16 21:25N 38°02' E 023°31'0 0.0
2017-Oct-16 20:55N 38°02' E 023°31'0 0.0
2017-Oct-16 20:28N 38°02' E 023°31'0 0.0
2017-Oct-16 19:58N 38°02' E 023°31'0 0.0
2017-Oct-16 19:25N 38°02' E 023°31'0 0.1
2017-Oct-16 19:00N 38°02' E 023°31'0 1.0
2017-Oct-16 18:30N 38°01' E 023°31'1 1.1
2017-Oct-16 18:00N 38°02' E 023°31'0 0.0
2017-Oct-16 09:45N 38°02' E 023°31'0 0.0
2017-Oct-16 09:27N 38°02' E 023°31'0 0.0
2017-Oct-16 08:57N 38°02' E 023°31'0 0.0
2017-Oct-16 07:03N 38°02' E 023°31'0 0.0
2017-Oct-16 06:45N 38°02' E 023°31'0 0.0
2017-Oct-16 06:27N 38°02' E 023°31'0 0.0
2017-Oct-16 05:57N 38°02' E 023°31'0 0.0
2017-Oct-16 05:27N 38°02' E 023°31'0 0.0
2017-Oct-16 04:57N 38°02' E 023°31'0 0.0
2017-Oct-16 04:27N 38°02' E 023°31'0 0.0
2017-Oct-16 03:57N 38°02' E 023°31'0 0.0
2017-Oct-16 03:27N 38°02' E 023°31'0 0.0
2017-Oct-16 02:45N 38°02' E 023°31'0 0.1
2017-Oct-16 02:27N 38°02' E 023°31'0 0.0
2017-Oct-16 01:57N 38°02' E 023°31'0 0.0
2017-Oct-16 01:27N 38°02' E 023°31'0 0.0
2017-Oct-16 00:51N 38°02' E 023°31'0 0.0
2017-Oct-16 00:27N 38°02' E 023°31'0 0.0
2017-Oct-15 23:57N 38°02' E 023°31'0 0.0
2017-Oct-15 23:21N 38°02' E 023°31'0 0.0
2017-Oct-15 22:57N 38°02' E 023°31'0 0.1
2017-Oct-15 22:30N 38°02' E 023°31'0 0.8
2017-Oct-15 22:00N 38°01' E 023°32'3 6.3
2017-Oct-15 21:30N 38°02' E 023°36'0 0.0
2017-Oct-15 10:27N 38°02' E 023°36'0 0.9
2017-Oct-15 09:58N 38°01' E 023°35'2 5.4
2017-Oct-15 09:30N 38°01' E 023°32'2 2.4
2017-Oct-15 08:51N 38°02' E 023°31'0 0.0
2017-Oct-15 08:09N 38°02' E 023°31'0 0.0
2017-Oct-15 07:51N 38°02' E 023°31'0 0.0
2017-Oct-15 06:45N 38°02' E 023°31'0 0.0
2017-Oct-15 06:27N 38°02' E 023°31'0 0.0
2017-Oct-14 17:25N 38°02' E 023°30'2 3.5
2017-Oct-14 16:59N 38°02' E 023°32'0 0.1
2017-Oct-14 16:29N 38°02' E 023°32'0 0.0
2017-Oct-14 15:59N 38°02' E 023°32'0 0.0
2017-Oct-14 15:26N 38°02' E 023°32'0 0.0
2017-Oct-14 14:59N 38°02' E 023°32'0 0.0
2017-Oct-14 14:29N 38°02' E 023°32'0 0.0
2017-Oct-14 13:56N 38°02' E 023°32'0 0.0
2017-Oct-14 13:29N 38°02' E 023°32'0 0.0
2017-Oct-14 12:58N 38°02' E 023°32'0 0.0
2017-Oct-14 12:28N 38°02' E 023°32'0 0.0
2017-Oct-14 11:58N 38°02' E 023°32'0 0.0
2017-Oct-14 11:28N 38°02' E 023°32'0 0.0
2017-Oct-14 10:58N 38°02' E 023°32'0 0.0
2017-Oct-14 10:28N 38°02' E 023°32'0 0.0
2017-Oct-14 09:55N 38°02' E 023°32'0 0.0
2017-Oct-14 09:22N 38°02' E 023°32'0 0.1
2017-Oct-14 08:55N 38°02' E 023°32'0 0.0
2017-Oct-14 08:19N 38°02' E 023°32'0 0.0
2017-Oct-14 07:49N 38°02' E 023°32'0 0.0
2017-Oct-14 07:25N 38°02' E 023°32'0 0.0
2017-Oct-14 06:58N 38°02' E 023°32'0 0.0
2017-Oct-14 06:25N 38°02' E 023°32'0 0.0
2017-Oct-14 05:55N 38°02' E 023°32'0 0.0
2017-Oct-14 05:19N 38°02' E 023°32'0 0.0
2017-Oct-14 04:58N 38°02' E 023°32'0 0.0
2017-Oct-14 04:25N 38°02' E 023°32'0 0.0
2017-Oct-14 03:58N 38°02' E 023°32'0 0.0
2017-Oct-14 03:22N 38°02' E 023°32'0 0.0
2017-Oct-14 02:55N 38°02' E 023°32'0 0.1
2017-Oct-14 02:28N 38°02' E 023°32'0 0.0
2017-Oct-14 01:58N 38°02' E 023°32'0 0.0
2017-Oct-14 01:25N 38°02' E 023°32'0 0.0
2017-Oct-14 00:55N 38°02' E 023°32'0 0.0
2017-Oct-14 00:25N 38°02' E 023°32'0 0.0
2017-Oct-13 23:55N 38°02' E 023°32'0 0.0
2017-Oct-13 23:25N 38°02' E 023°32'0 0.0
2017-Oct-13 22:55N 38°02' E 023°32'0 0.0
2017-Oct-13 22:25N 38°02' E 023°32'0 0.0
2017-Oct-13 21:55N 38°02' E 023°32'0 0.1
2017-Oct-13 21:28N 38°02' E 023°32'0 0.1
2017-Oct-13 20:58N 38°02' E 023°32'0 0.1
2017-Oct-13 20:28N 38°02' E 023°32'0 0.1
2017-Oct-13 19:58N 38°02' E 023°32'0 0.0
2017-Oct-13 19:28N 38°02' E 023°32'0 0.0
2017-Oct-13 18:58N 38°02' E 023°32'0 0.0
2017-Oct-13 18:28N 38°02' E 023°32'0 0.1
2017-Oct-13 17:58N 38°02' E 023°32'0 0.1
2017-Oct-13 17:25N 38°02' E 023°32'0 0.0
2017-Oct-13 16:58N 38°02' E 023°32'0 0.0
2017-Oct-13 16:28N 38°02' E 023°32'0 0.0
2017-Oct-13 15:55N 38°02' E 023°32'0 0.0
2017-Oct-13 15:22N 38°02' E 023°32'0 0.0
2017-Oct-13 14:52N 38°02' E 023°32'0 0.0
2017-Oct-13 14:28N 38°02' E 023°32'0 0.0
2017-Oct-13 13:55N 38°02' E 023°32'0 0.1
2017-Oct-13 13:28N 38°02' E 023°32'0 0.0
2017-Oct-13 12:58N 38°02' E 023°32'0 0.0
2017-Oct-13 12:28N 38°02' E 023°32'0 0.1
2017-Oct-13 11:49N 38°02' E 023°32'0 0.1
2017-Oct-13 11:28N 38°02' E 023°32'0 0.0
2017-Oct-13 10:55N 38°02' E 023°32'0 0.0
2017-Oct-13 10:25N 38°02' E 023°32'0 0.1
2017-Oct-13 09:58N 38°02' E 023°32'0 0.0
2017-Oct-13 09:19N 38°02' E 023°32'0 0.0
2017-Oct-13 08:55N 38°02' E 023°32'0 0.0
2017-Oct-13 08:25N 38°02' E 023°32'0 0.0
2017-Oct-13 07:55N 38°02' E 023°32'0 0.0
2017-Oct-13 07:28N 38°02' E 023°32'0 0.0
2017-Oct-13 06:58N 38°02' E 023°32'0 0.0
2017-Oct-13 06:25N 38°02' E 023°32'0 0.0
2017-Oct-13 05:52N 38°02' E 023°32'0 0.0
2017-Oct-13 05:19N 38°02' E 023°32'0 0.0
2017-Oct-13 04:49N 38°02' E 023°32'0 0.0
2017-Oct-13 04:28N 38°02' E 023°32'0 1.1
2017-Oct-13 04:00N 38°01' E 023°33'2 0.2
2017-Oct-12 17:58N 38°02' E 023°36'0 0.9
2017-Oct-12 17:29N 38°02' E 023°35'1 1.8
2017-Oct-12 16:56N 38°01' E 023°35'0 0.0
2017-Oct-12 16:27N 38°01' E 023°35'0 0.1
2017-Oct-12 12:54N 38°01' E 023°34'2 5.0
2017-Oct-12 12:31N 38°01' E 023°32'1 2.1
2017-Oct-12 11:54N 38°02' E 023°31'0 0.0
2017-Oct-12 11:30N 38°02' E 023°31'0 0.0
2017-Oct-12 10:51N 38°02' E 023°31'0 0.0
2017-Oct-12 10:30N 38°02' E 023°31'0 0.0
2017-Oct-12 10:00N 38°02' E 023°31'0 0.0
2017-Oct-12 09:30N 38°02' E 023°31'0 0.0
2017-Oct-12 08:54N 38°02' E 023°31'0 0.0
2017-Oct-12 08:27N 38°02' E 023°31'0 0.0
2017-Oct-12 08:00N 38°02' E 023°31'0 0.0
2017-Oct-12 07:30N 38°02' E 023°31'0 0.0
2017-Oct-12 07:00N 38°02' E 023°31'0 0.0
2017-Oct-12 06:30N 38°02' E 023°31'0 0.0
2017-Oct-12 06:00N 38°02' E 023°31'0 0.0
2017-Oct-11 23:41N 38°02' E 023°31'0 0.0
2017-Oct-11 23:23N 38°02' E 023°31'0 0.0
2017-Oct-11 22:59N 38°02' E 023°31'0 0.0
2017-Oct-11 22:30N 38°02' E 023°31'1 1.9
2017-Oct-11 22:00N 38°01' E 023°31'0 0.7
2017-Oct-11 21:30N 38°01' E 023°32'0 0.0
2017-Oct-11 20:57N 38°01' E 023°32'0 0.0
2017-Oct-11 20:30N 38°01' E 023°32'0 0.0
2017-Oct-11 20:00N 38°01' E 023°32'0 0.0
2017-Oct-11 19:30N 38°01' E 023°32'0 0.0
2017-Oct-11 19:00N 38°01' E 023°32'0 0.0
2017-Oct-11 18:30N 38°01' E 023°32'0 0.0
2017-Oct-11 18:00N 38°01' E 023°32'0 0.0
2017-Oct-11 17:30N 38°01' E 023°32'0 0.1
2017-Oct-11 17:00N 38°01' E 023°32'142 5.8
2017-Oct-10 16:17N 40°07' E 024°57'312.1
2017-Oct-10 16:00N 40°11' E 024°58'712.3
2017-Oct-10 15:26N 40°18' E 024°59'612.5
2017-Oct-10 14:58N 40°23' E 024°60'1212.2
2017-Oct-10 13:59N 40°35' E 025°03'612.4
2017-Oct-10 13:30N 40°41' E 025°03'612.3
2017-Oct-10 13:00N 40°47' E 025°04'611.8
2017-Oct-10 12:30N 40°53' E 025°05'510.3
2017-Oct-10 11:59N 40°58' E 025°06'2 0.3
2017-Oct-10 05:24N 41°00' E 025°08'2 4.4
2017-Oct-10 05:00N 40°59' E 025°07'4 7.4
2017-Oct-10 04:30N 40°56' E 025°04'511.0
2017-Oct-10 04:00N 40°51' E 025°01'611.1
2017-Oct-10 03:30N 40°46' E 024°57'611.7
2017-Oct-10 03:00N 40°41' E 024°53'612.3
2017-Oct-10 02:29N 40°35' E 024°49'612.1
2017-Oct-10 02:00N 40°30' E 024°46'612.3
2017-Oct-10 01:30N 40°24' E 024°42'612.2
2017-Oct-10 01:00N 40°19' E 024°38'712.1
2017-Oct-10 00:24N 40°13' E 024°34'511.7
2017-Oct-09 23:59N 40°08' E 024°31'1111.7
2017-Oct-09 23:05N 40°01' E 024°22'212.4
2017-Oct-09 22:57N 39°59' E 024°20'612.4
2017-Oct-09 22:30N 39°55' E 024°15'612.2
2017-Oct-09 21:59N 39°50' E 024°10'612.1
2017-Oct-09 21:30N 39°46' E 024°04'129 3.9
2017-Oct-08 12:28N 37°38' E 023°50'611.8
2017-Oct-08 11:59N 37°40' E 023°43'612.0
2017-Oct-08 11:30N 37°45' E 023°40'611.7
2017-Oct-08 11:00N 37°49' E 023°35'611.9
2017-Oct-08 10:30N 37°50' E 023°28'612.2
2017-Oct-08 10:00N 37°52' E 023°20'611.7
2017-Oct-08 09:30N 37°53' E 023°13'510.4
2017-Oct-08 09:00N 37°54' E 023°07'1 2.4
2017-Oct-08 08:29N 37°55' E 023°05'0 0.0
2017-Oct-08 07:59N 37°55' E 023°05'0 0.0
2017-Oct-08 07:29N 37°55' E 023°05'0 0.0
2017-Oct-08 06:03N 37°55' E 023°05'0 0.1
2017-Oct-08 06:00N 37°55' E 023°05'0 0.0
2017-Oct-08 05:30N 37°55' E 023°05'0 0.0
2017-Oct-08 05:00N 37°55' E 023°05'0 0.0
2017-Oct-08 04:30N 37°55' E 023°05'0 0.0
2017-Oct-08 04:00N 37°55' E 023°05'0 0.0
2017-Oct-08 03:30N 37°55' E 023°05'0 0.0
2017-Oct-08 03:00N 37°55' E 023°05'0 0.0
2017-Oct-08 02:30N 37°55' E 023°05'0 0.0
2017-Oct-08 02:00N 37°55' E 023°05'0 0.0
2017-Oct-08 01:30N 37°55' E 023°05'0 0.0
2017-Oct-08 01:00N 37°55' E 023°05'0 0.0
2017-Oct-08 00:30N 37°55' E 023°05'0 0.0
2017-Oct-08 00:00N 37°55' E 023°05'0 0.0
2017-Oct-07 23:30N 37°55' E 023°05'0 0.0
2017-Oct-07 23:00N 37°55' E 023°05'0 0.0
2017-Oct-07 22:30N 37°55' E 023°05'0 0.0
2017-Oct-07 22:00N 37°55' E 023°05'0 0.0
2017-Oct-07 21:30N 37°55' E 023°05'0 0.0
2017-Oct-07 21:00N 37°55' E 023°05'0 0.0
2017-Oct-07 20:30N 37°55' E 023°05'  

Dump ship's entire track history